createdAt,value
2022-10-22T00:01:07.984Z,61.77
2022-10-22T00:03:39.111Z,62.00
2022-10-22T00:06:07.405Z,61.79
2022-10-22T00:08:35.246Z,63.08
2022-10-22T00:11:12.503Z,68.79
2022-10-22T00:13:40.482Z,69.15
2022-10-22T00:16:08.632Z,63.63
2022-10-22T00:18:36.840Z,62.63
2022-10-22T00:21:05.834Z,59.11
2022-10-22T00:23:33.948Z,57.84
2022-10-22T00:26:01.723Z,57.72
2022-10-22T00:28:29.482Z,59.13
2022-10-22T00:30:58.607Z,59.62
2022-10-22T00:33:27.328Z,60.00
2022-10-22T00:35:55.124Z,59.92
2022-10-22T00:38:22.849Z,62.44
2022-10-22T00:40:50.834Z,70.23
2022-10-22T00:43:19.426Z,69.71
2022-10-22T00:45:47.278Z,67.44
2022-10-22T00:48:27.408Z,65.10
2022-10-22T00:51:01.495Z,63.53
2022-10-22T00:53:44.125Z,62.68
2022-10-22T00:56:11.881Z,61.90
2022-10-22T00:58:44.290Z,62.07
2022-10-22T01:01:17.493Z,61.29
2022-10-22T01:03:45.342Z,60.59
2022-10-22T01:06:19.660Z,59.86
2022-10-22T01:09:04.135Z,59.21
2022-10-22T01:12:14.164Z,57.05
2022-10-22T01:15:33.514Z,57.32
2022-10-22T01:18:11.369Z,59.25
2022-10-22T01:21:03.596Z,60.11
2022-10-22T01:24:47.373Z,59.02
2022-10-22T01:27:35.374Z,60.74
2022-10-22T01:30:09.017Z,61.02
2022-10-22T01:32:50.296Z,61.37
2022-10-22T01:35:22.780Z,61.11
2022-10-22T01:37:58.126Z,63.76
2022-10-22T01:40:26.042Z,72.86
2022-10-22T01:43:06.061Z,70.38
2022-10-22T01:45:43.258Z,66.92
2022-10-22T01:48:36.128Z,64.64
2022-10-22T01:51:22.708Z,63.36
2022-10-22T01:54:22.240Z,60.84
2022-10-22T01:57:21.111Z,57.95
2022-10-22T02:00:09.867Z,57.65
2022-10-22T02:02:40.748Z,60.07
2022-10-22T02:05:19.866Z,60.61
2022-10-22T02:07:55.508Z,59.34
2022-10-22T02:10:23.339Z,58.50
2022-10-22T02:12:53.558Z,60.78
2022-10-22T02:15:22.132Z,60.85
2022-10-22T02:17:49.910Z,60.61
2022-10-22T02:20:26.173Z,62.06
2022-10-22T02:22:53.973Z,64.55
2022-10-22T02:25:22.725Z,73.08
2022-10-22T02:28:13.628Z,69.77
2022-10-22T02:30:43.029Z,66.12
2022-10-22T02:33:20.981Z,64.91
2022-10-22T02:35:48.799Z,65.55
2022-10-22T02:38:16.565Z,64.29
2022-10-22T02:40:44.380Z,63.16
2022-10-22T02:43:12.189Z,62.24
2022-10-22T02:45:40.053Z,61.29
2022-10-22T02:48:08.054Z,60.47
2022-10-22T02:50:35.991Z,60.20
2022-10-22T02:53:03.856Z,59.48
2022-10-22T02:55:31.581Z,57.44
2022-10-22T02:57:59.426Z,57.77
2022-10-22T03:00:27.818Z,59.12
2022-10-22T03:02:55.638Z,59.28
2022-10-22T03:05:23.389Z,60.85
2022-10-22T03:07:51.154Z,60.23
2022-10-22T03:10:18.962Z,60.45
2022-10-22T03:12:46.780Z,61.86
2022-10-22T03:15:14.772Z,61.49
2022-10-22T03:17:42.917Z,62.33
2022-10-22T03:20:10.993Z,72.90
2022-10-22T03:22:39.428Z,70.13
2022-10-22T03:25:10.746Z,65.00
2022-10-22T03:27:38.796Z,58.35
2022-10-22T03:30:07.880Z,56.28
2022-10-22T03:32:35.748Z,58.64
2022-10-22T03:35:05.616Z,60.00
2022-10-22T03:37:33.341Z,62.62
2022-10-22T03:40:01.106Z,69.99
2022-10-22T03:42:28.956Z,65.61
2022-10-22T03:44:56.816Z,61.45
2022-10-22T03:47:24.832Z,61.10
2022-10-22T03:49:52.754Z,58.82
2022-10-22T03:52:20.584Z,56.21
2022-10-22T03:54:48.384Z,56.78
2022-10-22T03:57:16.146Z,58.25
2022-10-22T03:59:45.351Z,59.55
2022-10-22T04:02:13.623Z,59.52
2022-10-22T04:04:41.389Z,65.59
2022-10-22T04:07:09.347Z,69.54
2022-10-22T04:09:37.624Z,64.85
2022-10-22T04:12:06.717Z,61.79
2022-10-22T04:14:34.419Z,59.18
2022-10-22T04:17:02.259Z,56.75
2022-10-22T04:19:30.113Z,57.77
2022-10-22T04:21:59.957Z,59.56
2022-10-22T04:24:28.097Z,60.32
2022-10-22T04:26:56.131Z,60.23
2022-10-22T04:29:24.444Z,60.05
2022-10-22T04:31:52.513Z,60.57
2022-10-22T04:34:20.376Z,60.65
2022-10-22T04:36:48.242Z,61.08
2022-10-22T04:39:16.110Z,64.75
2022-10-22T04:41:43.872Z,71.23
2022-10-22T04:44:14.070Z,68.82
2022-10-22T04:46:44.124Z,65.75
2022-10-22T04:49:11.909Z,64.28
2022-10-22T04:51:39.737Z,62.95
2022-10-22T04:54:07.572Z,61.92
2022-10-22T04:56:35.365Z,60.93
2022-10-22T04:59:05.973Z,59.80
2022-10-22T05:01:40.028Z,58.22
2022-10-22T05:04:13.496Z,57.80
2022-10-22T05:06:41.527Z,58.30
2022-10-22T05:09:13.952Z,59.26
2022-10-22T05:11:45.513Z,59.67
2022-10-22T05:14:13.467Z,59.27
2022-10-22T05:16:41.288Z,59.44
2022-10-22T05:19:12.756Z,59.70
2022-10-22T05:21:40.752Z,60.51
2022-10-22T05:24:08.921Z,59.82
2022-10-22T05:26:36.661Z,60.17
2022-10-22T05:29:04.555Z,61.63
2022-10-22T05:31:32.521Z,61.90
2022-10-22T05:34:00.281Z,67.04
2022-10-22T05:36:28.197Z,71.52
2022-10-22T05:38:57.156Z,70.07
2022-10-22T05:41:26.134Z,66.28
2022-10-22T05:43:58.401Z,62.02
2022-10-22T05:46:28.851Z,59.20
2022-10-22T05:48:59.346Z,55.31
2022-10-22T05:51:28.861Z,54.65
2022-10-22T05:54:01.666Z,55.65
2022-10-22T05:56:30.685Z,56.66
2022-10-22T05:58:58.629Z,58.41
2022-10-22T06:01:29.434Z,59.57
2022-10-22T06:04:00.098Z,60.82
2022-10-22T06:06:44.168Z,65.33
2022-10-22T06:12:03.802Z,62.92
2022-10-22T06:14:32.904Z,61.42
2022-10-22T06:17:00.877Z,58.88
2022-10-22T06:19:30.164Z,55.48
2022-10-22T06:21:58.141Z,55.48
2022-10-22T06:24:25.960Z,55.78
2022-10-22T06:26:53.927Z,55.34
2022-10-22T06:29:21.837Z,56.36
2022-10-22T06:31:49.573Z,56.81
2022-10-22T06:34:19.044Z,57.56
2022-10-22T06:36:47.106Z,57.51
2022-10-22T06:39:16.816Z,57.36
2022-10-22T06:41:44.780Z,57.07
2022-10-22T06:44:15.275Z,57.56
2022-10-22T06:46:43.617Z,57.24
2022-10-22T06:49:15.165Z,57.33
2022-10-22T06:51:43.170Z,57.81
2022-10-22T06:54:11.242Z,57.58
2022-10-22T06:56:39.107Z,60.08
2022-10-22T06:59:06.971Z,63.48
2022-10-22T07:01:35.248Z,63.04
2022-10-22T07:04:03.523Z,61.46
2022-10-22T07:06:31.489Z,55.49
2022-10-22T07:09:00.373Z,55.03
2022-10-22T07:11:30.875Z,55.34
2022-10-22T07:13:59.644Z,56.43
2022-10-22T07:16:31.309Z,57.56
2022-10-22T07:19:01.776Z,58.16
2022-10-22T07:21:30.059Z,56.59
2022-10-22T07:23:59.258Z,57.63
2022-10-22T07:26:30.955Z,58.38
2022-10-22T07:29:00.871Z,57.00
2022-10-22T07:31:28.732Z,58.72
2022-10-22T07:33:57.458Z,59.83
2022-10-22T07:36:25.334Z,57.51
2022-10-22T07:38:57.746Z,58.28
2022-10-22T07:41:26.451Z,56.13
2022-10-22T07:43:54.374Z,58.53
2022-10-22T07:46:22.356Z,55.04
2022-10-22T07:48:50.259Z,55.78
2022-10-22T07:51:17.986Z,53.25
2022-10-22T07:53:45.821Z,55.82
2022-10-22T07:56:14.199Z,56.68
2022-10-22T07:58:42.064Z,54.10
2022-10-22T08:01:09.955Z,54.78
2022-10-22T08:03:37.808Z,54.50
2022-10-22T08:06:05.972Z,52.51
2022-10-22T08:08:34.834Z,53.60
2022-10-22T08:11:02.732Z,54.80
2022-10-22T08:13:30.781Z,53.40
2022-10-22T08:16:00.179Z,54.02
2022-10-22T08:18:28.371Z,53.00
2022-10-22T08:20:56.363Z,54.39
2022-10-22T08:23:26.146Z,54.72
2022-10-22T08:25:57.610Z,54.10
2022-10-22T08:28:25.874Z,53.15
2022-10-22T08:30:53.650Z,53.52
2022-10-22T08:33:22.382Z,52.56
2022-10-22T08:35:51.077Z,53.53
2022-10-22T08:38:19.085Z,54.66
2022-10-22T08:40:53.190Z,52.07
2022-10-22T08:44:02.344Z,53.91
2022-10-22T08:46:44.397Z,54.02
2022-10-22T08:49:24.783Z,54.37
2022-10-22T08:51:52.591Z,52.94
2022-10-22T08:54:45.324Z,53.34
2022-10-22T08:57:34.286Z,51.75
2022-10-22T09:00:10.837Z,52.32
2022-10-22T09:03:00.631Z,52.48
2022-10-22T09:05:40.299Z,51.78
2022-10-22T09:08:16.425Z,52.02
2022-10-22T09:10:49.227Z,52.00
2022-10-22T09:13:21.532Z,52.24
2022-10-22T09:15:53.261Z,52.30
2022-10-22T09:18:36.639Z,52.17
2022-10-22T09:21:33.478Z,52.22
2022-10-22T09:24:10.767Z,52.43
2022-10-22T09:26:39.940Z,52.20
2022-10-22T09:29:13.693Z,51.67
2022-10-22T09:31:41.643Z,51.72
2022-10-22T09:34:09.463Z,52.18
2022-10-22T09:36:37.233Z,51.25
2022-10-22T09:39:05.377Z,51.86
2022-10-22T09:41:33.307Z,52.46
2022-10-22T09:44:01.063Z,52.36
2022-10-22T09:46:29.773Z,52.42
2022-10-22T09:49:01.709Z,52.73
2022-10-22T09:51:59.797Z,52.34
2022-10-22T09:54:33.749Z,52.20
2022-10-22T09:57:22.077Z,52.21
2022-10-22T09:59:52.538Z,52.31
2022-10-22T10:02:39.237Z,52.11
2022-10-22T10:05:07.862Z,51.93
2022-10-22T10:07:36.087Z,52.35
2022-10-22T10:10:19.072Z,52.57
2022-10-22T10:12:58.612Z,52.52
2022-10-22T10:15:49.225Z,51.58
2022-10-22T10:18:47.836Z,52.07
2022-10-22T10:21:36.150Z,52.19
2022-10-22T10:24:13.076Z,51.95
2022-10-22T10:26:52.441Z,52.07
2022-10-22T10:29:47.277Z,52.45
2022-10-22T10:33:12.816Z,52.96
2022-10-22T10:35:55.104Z,52.83
2022-10-22T10:38:34.840Z,52.65
2022-10-22T10:41:23.866Z,52.64
2022-10-22T10:44:48.531Z,52.97
2022-10-22T10:47:33.699Z,52.98
2022-10-22T10:50:18.638Z,52.10
2022-10-22T10:53:27.364Z,51.85
2022-10-22T10:56:21.161Z,51.78
2022-10-22T10:59:12.742Z,51.87
2022-10-22T11:02:15.382Z,52.11
2022-10-22T11:05:04.837Z,51.67
2022-10-22T11:07:39.317Z,51.66
2022-10-22T11:10:25.076Z,51.83
2022-10-22T11:12:53.568Z,51.67
2022-10-22T11:15:28.522Z,51.79
2022-10-22T11:18:19.029Z,51.88
2022-10-22T11:21:01.292Z,51.45
2022-10-22T11:24:08.338Z,52.31
2022-10-22T11:26:45.690Z,51.99
2022-10-22T11:29:20.264Z,52.16
2022-10-22T11:31:48.741Z,51.87
2022-10-22T11:34:39.379Z,51.92
2022-10-22T11:37:07.168Z,51.54
2022-10-22T11:39:45.910Z,52.50
2022-10-22T11:42:21.270Z,52.38
2022-10-22T11:45:14.887Z,52.58
2022-10-22T11:47:58.949Z,51.72
2022-10-22T11:50:47.116Z,52.31
2022-10-22T11:53:14.903Z,52.93
2022-10-22T11:56:00.114Z,52.78
2022-10-22T11:58:39.338Z,53.00
2022-10-22T12:01:07.275Z,53.37
2022-10-22T12:03:35.138Z,53.47
2022-10-22T12:06:11.885Z,53.46
2022-10-22T12:08:48.620Z,53.90
2022-10-22T12:11:19.395Z,54.01
2022-10-22T12:14:02.252Z,54.01
2022-10-22T12:16:54.590Z,54.16
2022-10-22T12:19:36.189Z,54.34
2022-10-22T12:22:09.976Z,54.20
2022-10-22T12:24:41.713Z,54.57
2022-10-22T12:27:27.080Z,55.11
2022-10-22T12:29:57.208Z,54.98
2022-10-22T12:32:41.345Z,54.85
2022-10-22T12:35:17.055Z,54.97
2022-10-22T12:37:45.100Z,54.79
2022-10-22T12:40:17.618Z,55.05
2022-10-22T12:42:56.612Z,54.91
2022-10-22T12:45:33.287Z,55.09
2022-10-22T12:48:27.287Z,55.37
2022-10-22T12:50:58.081Z,55.53
2022-10-22T12:53:31.519Z,55.68
2022-10-22T12:56:08.555Z,55.98
2022-10-22T12:58:49.552Z,56.06
2022-10-22T13:01:17.765Z,56.15
2022-10-22T13:03:50.540Z,56.11
2022-10-22T13:06:18.255Z,56.40
2022-10-22T13:09:05.920Z,56.78
2022-10-22T13:11:38.818Z,57.42
2022-10-22T13:14:21.694Z,58.16
2022-10-22T13:17:36.953Z,58.14
2022-10-22T13:20:21.473Z,58.90
2022-10-22T13:23:00.629Z,59.63
2022-10-22T13:25:35.971Z,59.52
2022-10-22T13:28:21.008Z,59.37
2022-10-22T13:30:57.496Z,59.90
2022-10-22T13:33:37.118Z,60.22
2022-10-22T13:36:05.293Z,59.74
2022-10-22T13:38:33.164Z,60.36
2022-10-22T13:41:03.279Z,60.35
2022-10-22T13:43:31.286Z,60.31
2022-10-22T13:45:59.379Z,60.50
2022-10-22T13:48:28.501Z,62.48
2022-10-22T13:50:56.462Z,66.06
2022-10-22T13:53:26.292Z,65.77
2022-10-22T13:55:54.511Z,62.95
2022-10-22T13:58:26.009Z,59.27
2022-10-22T14:00:57.286Z,56.64
2022-10-22T14:03:33.464Z,57.65
2022-10-22T14:06:01.540Z,58.06
2022-10-22T14:08:29.502Z,59.69
2022-10-22T14:10:57.489Z,59.80
2022-10-22T14:13:25.666Z,62.87
2022-10-22T14:15:53.476Z,65.81
2022-10-22T14:18:31.751Z,60.08
2022-10-22T14:21:04.881Z,59.35
2022-10-22T14:23:34.178Z,59.62
2022-10-22T14:26:02.301Z,59.55
2022-10-22T14:28:31.594Z,60.10
2022-10-22T14:31:11.102Z,63.94
2022-10-22T14:33:39.265Z,69.03
2022-10-22T14:36:07.339Z,68.99
2022-10-22T14:38:35.166Z,67.20
2022-10-22T14:41:03.025Z,65.58
2022-10-22T14:43:31.393Z,64.86
2022-10-22T14:45:59.409Z,64.10
2022-10-22T14:48:27.161Z,62.50
2022-10-22T14:50:55.021Z,61.89
2022-10-22T14:53:22.953Z,59.84
2022-10-22T14:55:51.671Z,58.58
2022-10-22T14:58:20.080Z,58.57
2022-10-22T15:00:47.989Z,60.06
2022-10-22T15:03:16.014Z,60.43
2022-10-22T15:05:44.897Z,61.91
2022-10-22T15:08:14.544Z,66.04
2022-10-22T15:10:42.598Z,67.04
2022-10-22T15:13:10.541Z,65.63
2022-10-22T15:15:41.444Z,64.39
2022-10-22T15:18:09.443Z,64.35
2022-10-22T15:20:37.366Z,64.08
2022-10-22T15:23:05.388Z,62.89
2022-10-22T15:25:33.337Z,62.41
2022-10-22T15:28:09.189Z,60.51
2022-10-22T15:30:38.009Z,60.22
2022-10-22T15:33:06.524Z,61.63
2022-10-22T15:35:34.573Z,64.75
2022-10-22T15:38:02.748Z,65.48
2022-10-22T15:40:30.673Z,64.79
2022-10-22T15:42:58.619Z,62.30
2022-10-22T15:45:26.796Z,62.24
2022-10-22T15:47:54.771Z,63.34
2022-10-22T15:50:22.679Z,63.15
2022-10-22T15:52:50.535Z,62.82
2022-10-22T15:55:19.055Z,62.70
2022-10-22T15:57:47.077Z,62.79
2022-10-22T16:00:15.599Z,62.55
2022-10-22T16:02:44.320Z,61.68
2022-10-22T16:05:12.545Z,61.82
2022-10-22T16:07:40.733Z,61.87
2022-10-22T16:10:12.900Z,61.91
2022-10-22T16:12:41.619Z,61.43
2022-10-22T16:15:10.549Z,59.69
2022-10-22T16:17:38.670Z,61.01
2022-10-22T16:20:10.519Z,63.14
2022-10-22T16:22:38.866Z,66.80
2022-10-22T16:25:07.847Z,66.79
2022-10-22T16:27:35.820Z,65.53
2022-10-22T16:30:04.226Z,63.74
2022-10-22T16:32:32.587Z,62.62
2022-10-22T16:35:00.601Z,63.53
2022-10-22T16:37:28.737Z,64.00
2022-10-22T16:39:56.836Z,62.45
2022-10-22T16:42:25.106Z,63.25
2022-10-22T16:44:53.157Z,62.96
2022-10-22T16:47:21.191Z,63.57
2022-10-22T16:49:49.346Z,63.78
2022-10-22T16:52:17.310Z,63.16
2022-10-22T16:54:46.910Z,63.06
2022-10-22T16:57:15.031Z,61.57
2022-10-22T16:59:43.121Z,62.80
2022-10-22T17:02:11.334Z,62.33
2022-10-22T17:04:39.381Z,63.56
2022-10-22T17:07:07.408Z,63.07
2022-10-22T17:09:35.459Z,63.49
2022-10-22T17:12:03.753Z,63.50
2022-10-22T17:14:31.652Z,62.49
2022-10-22T17:16:59.692Z,61.42
2022-10-22T17:19:27.686Z,62.32
2022-10-22T17:21:56.770Z,63.00
2022-10-22T17:24:27.237Z,63.44
2022-10-22T17:26:57.198Z,63.75
2022-10-22T17:29:25.689Z,63.57
2022-10-22T17:31:53.460Z,62.41
2022-10-22T17:34:21.273Z,62.22
2022-10-22T17:36:49.338Z,62.85
2022-10-22T17:39:18.423Z,62.97
2022-10-22T17:41:46.338Z,63.22
2022-10-22T17:44:14.467Z,62.63
2022-10-22T17:46:43.882Z,63.18
2022-10-22T17:49:17.284Z,63.11
2022-10-22T17:51:48.480Z,63.05
2022-10-22T17:54:18.430Z,63.00
2022-10-22T17:56:46.238Z,62.91
2022-10-22T17:59:15.140Z,63.72
2022-10-22T18:01:46.990Z,62.98
2022-10-22T18:04:17.120Z,64.07
2022-10-22T18:06:47.101Z,64.08
2022-10-22T18:09:18.537Z,64.26
2022-10-22T18:11:48.609Z,64.12
2022-10-22T18:14:20.581Z,63.09
2022-10-22T18:16:48.724Z,63.99
2022-10-22T18:19:19.765Z,64.11
2022-10-22T18:21:47.626Z,63.87
2022-10-22T18:24:15.793Z,63.28
2022-10-22T18:26:43.692Z,62.51
2022-10-22T18:29:15.040Z,63.13
2022-10-22T18:31:42.920Z,63.39
2022-10-22T18:34:11.009Z,63.00
2022-10-22T18:36:38.877Z,63.58
2022-10-22T18:39:06.616Z,64.15
2022-10-22T18:41:35.977Z,63.35
2022-10-22T18:44:05.344Z,64.42
2022-10-22T18:46:39.438Z,63.25
2022-10-22T18:49:07.563Z,63.37
2022-10-22T18:51:35.889Z,63.91
2022-10-22T18:54:18.239Z,63.56
2022-10-22T18:56:50.362Z,63.41
2022-10-22T18:59:24.618Z,64.67
2022-10-22T19:01:53.467Z,63.72
2022-10-22T19:04:21.730Z,63.34
2022-10-22T19:06:49.837Z,64.05
2022-10-22T19:09:18.705Z,64.22
2022-10-22T19:11:46.629Z,64.03
2022-10-22T19:14:19.638Z,63.68
2022-10-22T19:16:47.730Z,64.70
2022-10-22T19:19:18.402Z,64.07
2022-10-22T19:21:49.986Z,64.05
2022-10-22T19:24:18.996Z,63.41
2022-10-22T19:26:47.318Z,63.46
2022-10-22T19:29:16.724Z,63.98
2022-10-22T19:31:46.788Z,64.21
2022-10-22T19:34:14.730Z,63.59
2022-10-22T19:36:42.785Z,64.11
2022-10-22T19:39:10.834Z,64.18
2022-10-22T19:41:38.948Z,64.68
2022-10-22T19:44:07.899Z,63.82
2022-10-22T19:46:35.726Z,64.05
2022-10-22T19:49:03.814Z,64.06
2022-10-22T19:51:31.987Z,64.14
2022-10-22T19:54:03.424Z,63.92
2022-10-22T19:56:31.797Z,63.22
2022-10-22T19:58:59.817Z,64.11
2022-10-22T20:01:27.802Z,64.59
2022-10-22T20:03:55.714Z,64.29
2022-10-22T20:06:24.167Z,64.08
2022-10-22T20:08:55.254Z,64.39
2022-10-22T20:11:26.950Z,63.84
2022-10-22T20:13:55.163Z,63.43
2022-10-22T20:16:25.563Z,63.44
2022-10-22T20:18:53.472Z,63.67
2022-10-22T20:21:21.395Z,64.49
2022-10-22T20:23:52.700Z,64.24
2022-10-22T20:26:21.227Z,63.29
2022-10-22T20:28:49.135Z,64.39
2022-10-22T20:31:20.021Z,63.76
2022-10-22T20:33:48.890Z,64.50
2022-10-22T20:36:19.559Z,65.05
2022-10-22T20:38:48.388Z,64.44
2022-10-22T20:41:21.516Z,65.20
2022-10-22T20:43:50.691Z,65.30
2022-10-22T20:46:19.509Z,64.43
2022-10-22T20:48:47.351Z,64.90
2022-10-22T20:51:15.203Z,65.57
2022-10-22T20:53:43.075Z,65.43
2022-10-22T20:56:11.105Z,64.40
2022-10-22T20:58:39.259Z,64.86
2022-10-22T21:01:10.879Z,64.04
2022-10-22T21:03:39.111Z,65.26
2022-10-22T21:06:07.169Z,65.30
2022-10-22T21:08:34.921Z,64.65
2022-10-22T21:11:02.706Z,64.92
2022-10-22T21:13:33.569Z,64.26
2022-10-22T21:16:08.749Z,65.12
2022-10-22T21:18:36.745Z,65.35
2022-10-22T21:21:06.160Z,65.70
2022-10-22T21:23:34.543Z,64.52
2022-10-22T21:26:02.393Z,65.23
2022-10-22T21:28:35.421Z,64.98
2022-10-22T21:31:08.873Z,64.32
2022-10-22T21:33:37.957Z,64.42
2022-10-22T21:36:06.779Z,64.78
2022-10-22T21:38:34.684Z,65.78
2022-10-22T21:41:13.015Z,65.16
2022-10-22T21:43:42.011Z,64.93
2022-10-22T21:46:11.507Z,64.87
2022-10-22T21:48:40.551Z,65.25
2022-10-22T21:51:17.109Z,65.82
2022-10-22T21:53:45.200Z,65.33
2022-10-22T21:56:22.122Z,65.64
2022-10-22T21:58:49.898Z,65.54
2022-10-22T22:01:17.794Z,65.54
2022-10-22T22:03:49.152Z,65.07
2022-10-22T22:06:21.302Z,64.51
2022-10-22T22:08:50.051Z,64.90
2022-10-22T22:11:24.084Z,64.83
2022-10-22T22:13:52.939Z,65.08
2022-10-22T22:16:27.208Z,65.05
2022-10-22T22:19:02.261Z,64.93
2022-10-22T22:21:30.067Z,65.40
2022-10-22T22:23:58.132Z,65.21
2022-10-22T22:26:29.736Z,65.22
2022-10-22T22:28:58.636Z,64.59
2022-10-22T22:31:32.222Z,65.36
2022-10-22T22:34:01.635Z,65.28
2022-10-22T22:36:34.606Z,64.84
2022-10-22T22:39:02.583Z,64.57
2022-10-22T22:41:30.627Z,64.65
2022-10-22T22:43:58.534Z,65.22
2022-10-22T22:46:26.536Z,64.95
2022-10-22T22:48:54.330Z,65.70
2022-10-22T22:51:22.131Z,65.66
2022-10-22T22:53:50.055Z,65.87
2022-10-22T22:56:23.638Z,64.97
2022-10-22T22:58:51.470Z,65.44
2022-10-22T23:01:23.713Z,65.28
2022-10-22T23:03:59.057Z,65.68
2022-10-22T23:06:29.038Z,65.85
2022-10-22T23:08:57.516Z,65.83
2022-10-22T23:11:26.042Z,66.19
2022-10-22T23:14:01.626Z,66.07
2022-10-22T23:16:32.056Z,65.54
2022-10-22T23:19:00.290Z,66.01
2022-10-22T23:21:30.360Z,65.70
2022-10-22T23:24:00.710Z,66.08
2022-10-22T23:26:35.667Z,65.29
2022-10-22T23:29:09.986Z,65.61
2022-10-22T23:31:37.854Z,67.03
2022-10-22T23:34:06.818Z,67.34
2022-10-22T23:36:35.375Z,67.24
2022-10-22T23:39:07.548Z,66.86
2022-10-22T23:41:35.871Z,66.75
2022-10-22T23:44:04.389Z,66.07
2022-10-22T23:46:33.380Z,65.98
2022-10-22T23:49:01.559Z,66.26
2022-10-22T23:51:29.321Z,67.43
2022-10-22T23:54:00.030Z,66.88
2022-10-22T23:56:28.230Z,66.78
2022-10-22T23:58:56.342Z,66.02
